sensor_id;sensor_type;location;lat;lon;timestamp;P1;durP1;ratioP1;P2;durP2;ratioP2
51146;SDS011;37207;53.060;18.726;2023-12-29T00:02:07;30.90;;;20.10;;
51146;SDS011;37207;53.060;18.726;2023-12-29T00:04:33;14.60;;;7.70;;
51146;SDS011;37207;53.060;18.726;2023-12-29T00:07:01;28.90;;;20.60;;
51146;SDS011;37207;53.060;18.726;2023-12-29T00:09:28;20.20;;;15.60;;
51146;SDS011;37207;53.060;18.726;2023-12-29T00:11:55;16.80;;;7.30;;
51146;SDS011;37207;53.060;18.726;2023-12-29T00:14:21;22.80;;;11.00;;
51146;SDS011;37207;53.060;18.726;2023-12-29T00:16:48;28.90;;;21.60;;
51146;SDS011;37207;53.060;18.726;2023-12-29T00:19:14;25.50;;;8.60;;
51146;SDS011;37207;53.060;18.726;2023-12-29T00:21:41;15.50;;;7.10;;
51146;SDS011;37207;53.060;18.726;2023-12-29T00:24:07;22.10;;;8.00;;
51146;SDS011;37207;53.060;18.726;2023-12-29T00:26:34;24.10;;;8.10;;
51146;SDS011;37207;53.060;18.726;2023-12-29T00:29:00;32.70;;;19.70;;
51146;SDS011;37207;53.060;18.726;2023-12-29T00:31:27;21.00;;;8.50;;
51146;SDS011;37207;53.060;18.726;2023-12-29T00:33:53;38.80;;;22.80;;
51146;SDS011;37207;53.060;18.726;2023-12-29T00:36:20;30.40;;;18.00;;
51146;SDS011;37207;53.060;18.726;2023-12-29T00:38:47;22.00;;;17.50;;
51146;SDS011;37207;53.060;18.726;2023-12-29T00:41:14;18.30;;;5.20;;
51146;SDS011;37207;53.060;18.726;2023-12-29T00:43:41;11.90;;;5.00;;
51146;SDS011;37207;53.060;18.726;2023-12-29T00:46:08;10.00;;;4.90;;
51146;SDS011;37207;53.060;18.726;2023-12-29T00:48:35;16.30;;;6.40;;
51146;SDS011;37207;53.060;18.726;2023-12-29T00:51:01;15.50;;;5.40;;
51146;SDS011;37207;53.060;18.726;2023-12-29T00:53:30;14.60;;;7.50;;
51146;SDS011;37207;53.060;18.726;2023-12-29T00:56:00;18.00;;;6.60;;
51146;SDS011;37207;53.060;18.726;2023-12-29T00:58:26;17.60;;;15.80;;
51146;SDS011;37207;53.060;18.726;2023-12-29T01:00:53;20.40;;;16.00;;
51146;SDS011;37207;53.060;18.726;2023-12-29T01:03:21;14.30;;;7.70;;
51146;SDS011;37207;53.060;18.726;2023-12-29T01:05:48;21.10;;;16.70;;
51146;SDS011;37207;53.060;18.726;2023-12-29T01:08:15;19.20;;;16.50;;
51146;SDS011;37207;53.060;18.726;2023-12-29T01:10:41;7.00;;;5.20;;
51146;SDS011;37207;53.060;18.726;2023-12-29T01:13:08;12.20;;;7.10;;
51146;SDS011;37207;53.060;18.726;2023-12-29T01:15:35;18.40;;;14.60;;
51146;SDS011;37207;53.060;18.726;2023-12-29T01:18:01;7.20;;;5.70;;
51146;SDS011;37207;53.060;18.726;2023-12-29T01:20:28;17.20;;;15.50;;
51146;SDS011;37207;53.060;18.726;2023-12-29T01:22:54;9.30;;;6.20;;
51146;SDS011;37207;53.060;18.726;2023-12-29T01:25:21;4.10;;;3.70;;
51146;SDS011;37207;53.060;18.726;2023-12-29T01:27:47;15.60;;;14.20;;
51146;SDS011;37207;53.060;18.726;2023-12-29T01:30:14;9.20;;;4.40;;
51146;SDS011;37207;53.060;18.726;2023-12-29T01:32:40;17.10;;;5.60;;
51146;SDS011;37207;53.060;18.726;2023-12-29T01:35:07;14.80;;;13.40;;
51146;SDS011;37207;53.060;18.726;2023-12-29T01:37:34;15.10;;;13.60;;
51146;SDS011;37207;53.060;18.726;2023-12-29T01:40:00;5.20;;;4.30;;
51146;SDS011;37207;53.060;18.726;2023-12-29T01:42:27;7.20;;;4.70;;
51146;SDS011;37207;53.060;18.726;2023-12-29T01:44:53;4.90;;;3.80;;
51146;SDS011;37207;53.060;18.726;2023-12-29T01:47:20;12.10;;;4.80;;
51146;SDS011;37207;53.060;18.726;2023-12-29T01:49:49;8.10;;;5.50;;
51146;SDS011;37207;53.060;18.726;2023-12-29T01:52:16;18.90;;;16.40;;
51146;SDS011;37207;53.060;18.726;2023-12-29T01:54:45;14.00;;;5.90;;
51146;SDS011;37207;53.060;18.726;2023-12-29T01:59:41;25.40;;;8.20;;
51146;SDS011;37207;53.060;18.726;2023-12-29T02:02:07;9.60;;;6.10;;
51146;SDS011;37207;53.060;18.726;2023-12-29T02:04:34;21.60;;;15.70;;
51146;SDS011;37207;53.060;18.726;2023-12-29T02:07:05;14.30;;;6.70;;
51146;SDS011;37207;53.060;18.726;2023-12-29T02:09:31;11.30;;;5.80;;
51146;SDS011;37207;53.060;18.726;2023-12-29T02:12:00;19.80;;;15.50;;
51146;SDS011;37207;53.060;18.726;2023-12-29T02:14:27;10.50;;;6.10;;
51146;SDS011;37207;53.060;18.726;2023-12-29T02:17:05;8.20;;;4.60;;
51146;SDS011;37207;53.060;18.726;2023-12-29T02:22:08;15.00;;;13.60;;
51146;SDS011;37207;53.060;18.726;2023-12-29T02:24:35;29.90;;;6.30;;
51146;SDS011;37207;53.060;18.726;2023-12-29T02:29:55;6.20;;;4.30;;
51146;SDS011;37207;53.060;18.726;2023-12-29T02:32:30;17.30;;;14.20;;
51146;SDS011;37207;53.060;18.726;2023-12-29T02:34:59;10.50;;;6.30;;
51146;SDS011;37207;53.060;18.726;2023-12-29T02:39:56;14.50;;;13.10;;
51146;SDS011;37207;53.060;18.726;2023-12-29T02:42:25;8.00;;;4.40;;
51146;SDS011;37207;53.060;18.726;2023-12-29T02:44:51;10.40;;;6.20;;
51146;SDS011;37207;53.060;18.726;2023-12-29T02:47:18;7.30;;;4.00;;
51146;SDS011;37207;53.060;18.726;2023-12-29T02:49:45;18.10;;;14.50;;
51146;SDS011;37207;53.060;18.726;2023-12-29T02:52:12;32.30;;;17.70;;
51146;SDS011;37207;53.060;18.726;2023-12-29T02:54:38;15.40;;;5.70;;
51146;SDS011;37207;53.060;18.726;2023-12-29T02:57:05;12.20;;;5.90;;
51146;SDS011;37207;53.060;18.726;2023-12-29T02:59:31;20.80;;;14.50;;
51146;SDS011;37207;53.060;18.726;2023-12-29T03:01:58;22.90;;;16.20;;
51146;SDS011;37207;53.060;18.726;2023-12-29T03:04:24;8.80;;;5.00;;
51146;SDS011;37207;53.060;18.726;2023-12-29T03:06:51;11.60;;;6.10;;
51146;SDS011;37207;53.060;18.726;2023-12-29T03:09:17;10.10;;;5.30;;
51146;SDS011;37207;53.060;18.726;2023-12-29T03:11:44;20.30;;;16.50;;
51146;SDS011;37207;53.060;18.726;2023-12-29T03:14:10;6.90;;;4.80;;
51146;SDS011;37207;53.060;18.726;2023-12-29T03:16:37;24.90;;;16.20;;
51146;SDS011;37207;53.060;18.726;2023-12-29T03:19:03;19.30;;;6.80;;
51146;SDS011;37207;53.060;18.726;2023-12-29T03:21:30;10.40;;;5.70;;
51146;SDS011;37207;53.060;18.726;2023-12-29T03:23:56;14.30;;;6.00;;
51146;SDS011;37207;53.060;18.726;2023-12-29T03:26:23;18.20;;;15.40;;
51146;SDS011;37207;53.060;18.726;2023-12-29T03:28:50;13.70;;;6.40;;
51146;SDS011;37207;53.060;18.726;2023-12-29T03:31:17;25.30;;;16.60;;
51146;SDS011;37207;53.060;18.726;2023-12-29T03:33:43;12.20;;;6.00;;
51146;SDS011;37207;53.060;18.726;2023-12-29T03:36:10;19.50;;;14.90;;
51146;SDS011;37207;53.060;18.726;2023-12-29T03:38:36;10.00;;;5.90;;
51146;SDS011;37207;53.060;18.726;2023-12-29T03:41:06;21.20;;;15.00;;
51146;SDS011;37207;53.060;18.726;2023-12-29T03:43:32;9.40;;;4.50;;
51146;SDS011;37207;53.060;18.726;2023-12-29T03:45:59;7.70;;;5.30;;
51146;SDS011;37207;53.060;18.726;2023-12-29T03:48:25;10.50;;;5.30;;
51146;SDS011;37207;53.060;18.726;2023-12-29T03:50:52;5.60;;;4.30;;
51146;SDS011;37207;53.060;18.726;2023-12-29T03:53:18;16.00;;;14.00;;
51146;SDS011;37207;53.060;18.726;2023-12-29T03:55:45;16.50;;;14.10;;
51146;SDS011;37207;53.060;18.726;2023-12-29T03:58:12;4.70;;;4.10;;
51146;SDS011;37207;53.060;18.726;2023-12-29T04:00:38;7.60;;;3.20;;
51146;SDS011;37207;53.060;18.726;2023-12-29T04:03:07;14.70;;;13.50;;
51146;SDS011;37207;53.060;18.726;2023-12-29T04:05:34;6.40;;;3.80;;
51146;SDS011;37207;53.060;18.726;2023-12-29T04:08:01;6.20;;;4.20;;
51146;SDS011;37207;53.060;18.726;2023-12-29T04:10:27;5.00;;;4.30;;
51146;SDS011;37207;53.060;18.726;2023-12-29T04:12:54;6.80;;;4.40;;
51146;SDS011;37207;53.060;18.726;2023-12-29T04:15:21;15.70;;;13.00;;
51146;SDS011;37207;53.060;18.726;2023-12-29T04:17:47;5.00;;;3.90;;
51146;SDS011;37207;53.060;18.726;2023-12-29T04:20:14;7.30;;;4.80;;
51146;SDS011;37207;53.060;18.726;2023-12-29T04:22:40;4.80;;;3.60;;
51146;SDS011;37207;53.060;18.726;2023-12-29T04:25:07;13.20;;;12.10;;
51146;SDS011;37207;53.060;18.726;2023-12-29T04:27:35;13.00;;;11.70;;
51146;SDS011;37207;53.060;18.726;2023-12-29T04:30:02;13.20;;;5.70;;
51146;SDS011;37207;53.060;18.726;2023-12-29T04:32:29;9.20;;;5.50;;
51146;SDS011;37207;53.060;18.726;2023-12-29T04:34:56;12.90;;;6.00;;
51146;SDS011;37207;53.060;18.726;2023-12-29T04:37:22;14.50;;;13.00;;
51146;SDS011;37207;53.060;18.726;2023-12-29T04:39:49;14.70;;;12.60;;
51146;SDS011;37207;53.060;18.726;2023-12-29T04:42:19;8.70;;;4.20;;
51146;SDS011;37207;53.060;18.726;2023-12-29T04:44:46;7.20;;;4.10;;
51146;SDS011;37207;53.060;18.726;2023-12-29T04:47:12;12.20;;;11.10;;
51146;SDS011;37207;53.060;18.726;2023-12-29T04:49:39;8.20;;;3.80;;
51146;SDS011;37207;53.060;18.726;2023-12-29T04:52:05;5.10;;;3.20;;
51146;SDS011;37207;53.060;18.726;2023-12-29T04:54:32;11.60;;;10.60;;
51146;SDS011;37207;53.060;18.726;2023-12-29T04:56:58;6.90;;;4.20;;
51146;SDS011;37207;53.060;18.726;2023-12-29T04:59:25;10.50;;;9.70;;
51146;SDS011;37207;53.060;18.726;2023-12-29T05:01:51;11.00;;;10.00;;
51146;SDS011;37207;53.060;18.726;2023-12-29T05:04:18;4.40;;;3.30;;
51146;SDS011;37207;53.060;18.726;2023-12-29T05:06:45;5.80;;;3.50;;
51146;SDS011;37207;53.060;18.726;2023-12-29T05:09:11;8.80;;;3.20;;
51146;SDS011;37207;53.060;18.726;2023-12-29T05:11:38;4.90;;;3.70;;
51146;SDS011;37207;53.060;18.726;2023-12-29T05:14:05;4.50;;;3.10;;
51146;SDS011;37207;53.060;18.726;2023-12-29T05:16:32;9.70;;;9.00;;
51146;SDS011;37207;53.060;18.726;2023-12-29T05:18:58;10.70;;;9.70;;
51146;SDS011;37207;53.060;18.726;2023-12-29T05:21:25;3.50;;;3.20;;
51146;SDS011;37207;53.060;18.726;2023-12-29T05:23:53;4.40;;;3.20;;
51146;SDS011;37207;53.060;18.726;2023-12-29T05:26:19;3.80;;;3.30;;
51146;SDS011;37207;53.060;18.726;2023-12-29T05:28:46;4.40;;;3.30;;
51146;SDS011;37207;53.060;18.726;2023-12-29T05:31:12;8.80;;;8.00;;
51146;SDS011;37207;53.060;18.726;2023-12-29T05:33:39;6.10;;;3.10;;
51146;SDS011;37207;53.060;18.726;2023-12-29T05:36:06;2.00;;;1.70;;
51146;SDS011;37207;53.060;18.726;2023-12-29T05:38:34;7.30;;;3.70;;
51146;SDS011;37207;53.060;18.726;2023-12-29T05:41:04;9.60;;;8.80;;
51146;SDS011;37207;53.060;18.726;2023-12-29T05:43:31;5.70;;;3.60;;
51146;SDS011;37207;53.060;18.726;2023-12-29T05:45:59;4.80;;;3.00;;
51146;SDS011;37207;53.060;18.726;2023-12-29T05:48:26;3.90;;;3.20;;
51146;SDS011;37207;53.060;18.726;2023-12-29T05:50:53;10.70;;;9.80;;
51146;SDS011;37207;53.060;18.726;2023-12-29T05:53:19;9.90;;;9.10;;
51146;SDS011;37207;53.060;18.726;2023-12-29T05:55:46;11.30;;;10.30;;
51146;SDS011;37207;53.060;18.726;2023-12-29T05:58:12;11.60;;;10.40;;
51146;SDS011;37207;53.060;18.726;2023-12-29T06:00:39;9.90;;;9.10;;
51146;SDS011;37207;53.060;18.726;2023-12-29T06:03:06;4.10;;;3.60;;
51146;SDS011;37207;53.060;18.726;2023-12-29T06:05:32;10.20;;;9.40;;
51146;SDS011;37207;53.060;18.726;2023-12-29T06:07:59;4.80;;;3.20;;
51146;SDS011;37207;53.060;18.726;2023-12-29T06:10:26;10.00;;;9.30;;
51146;SDS011;37207;53.060;18.726;2023-12-29T06:12:52;9.80;;;9.00;;
51146;SDS011;37207;53.060;18.726;2023-12-29T06:15:19;3.80;;;2.50;;
51146;SDS011;37207;53.060;18.726;2023-12-29T06:17:46;6.30;;;3.80;;
51146;SDS011;37207;53.060;18.726;2023-12-29T06:20:13;10.80;;;9.80;;
51146;SDS011;37207;53.060;18.726;2023-12-29T06:22:40;10.20;;;9.40;;
51146;SDS011;37207;53.060;18.726;2023-12-29T06:25:10;4.10;;;3.40;;
51146;SDS011;37207;53.060;18.726;2023-12-29T06:27:38;4.20;;;2.90;;
51146;SDS011;37207;53.060;18.726;2023-12-29T06:30:07;9.00;;;8.30;;
51146;SDS011;37207;53.060;18.726;2023-12-29T06:32:34;6.70;;;2.80;;
51146;SDS011;37207;53.060;18.726;2023-12-29T06:35:00;10.70;;;9.60;;
51146;SDS011;37207;53.060;18.726;2023-12-29T06:37:27;5.70;;;3.60;;
51146;SDS011;37207;53.060;18.726;2023-12-29T06:39:54;15.50;;;14.10;;
51146;SDS011;37207;53.060;18.726;2023-12-29T06:42:21;5.40;;;4.40;;
51146;SDS011;37207;53.060;18.726;2023-12-29T06:44:49;8.30;;;4.70;;
51146;SDS011;37207;53.060;18.726;2023-12-29T06:47:15;11.00;;;10.10;;
51146;SDS011;37207;53.060;18.726;2023-12-29T06:49:42;10.40;;;9.30;;
51146;SDS011;37207;53.060;18.726;2023-12-29T06:52:08;4.80;;;3.30;;
51146;SDS011;37207;53.060;18.726;2023-12-29T06:54:35;9.20;;;8.40;;
51146;SDS011;37207;53.060;18.726;2023-12-29T06:57:01;2.90;;;2.70;;
51146;SDS011;37207;53.060;18.726;2023-12-29T06:59:28;9.70;;;8.80;;
51146;SDS011;37207;53.060;18.726;2023-12-29T07:01:55;8.10;;;2.80;;
51146;SDS011;37207;53.060;18.726;2023-12-29T07:04:21;3.80;;;3.50;;
51146;SDS011;37207;53.060;18.726;2023-12-29T07:06:48;3.70;;;2.50;;
51146;SDS011;37207;53.060;18.726;2023-12-29T07:09:14;10.00;;;9.20;;
51146;SDS011;37207;53.060;18.726;2023-12-29T07:11:41;8.90;;;8.00;;
51146;SDS011;37207;53.060;18.726;2023-12-29T07:14:07;9.40;;;8.60;;
51146;SDS011;37207;53.060;18.726;2023-12-29T07:16:34;2.90;;;2.60;;
51146;SDS011;37207;53.060;18.726;2023-12-29T07:19:00;4.20;;;2.60;;
51146;SDS011;37207;53.060;18.726;2023-12-29T07:21:27;15.20;;;12.20;;
51146;SDS011;37207;53.060;18.726;2023-12-29T07:23:53;13.40;;;11.40;;
51146;SDS011;37207;53.060;18.726;2023-12-29T07:26:22;11.90;;;10.70;;
51146;SDS011;37207;53.060;18.726;2023-12-29T07:28:49;6.80;;;3.40;;
51146;SDS011;37207;53.060;18.726;2023-12-29T07:31:20;6.70;;;4.60;;
51146;SDS011;37207;53.060;18.726;2023-12-29T07:33:48;17.80;;;14.20;;
51146;SDS011;37207;53.060;18.726;2023-12-29T07:36:15;25.60;;;17.40;;
51146;SDS011;37207;53.060;18.726;2023-12-29T07:38:42;10.50;;;5.00;;
51146;SDS011;37207;53.060;18.726;2023-12-29T07:41:09;13.50;;;5.90;;
51146;SDS011;37207;53.060;18.726;2023-12-29T07:43:35;11.30;;;9.60;;
51146;SDS011;37207;53.060;18.726;2023-12-29T07:46:04;6.80;;;4.10;;
51146;SDS011;37207;53.060;18.726;2023-12-29T07:48:31;14.00;;;12.40;;
51146;SDS011;37207;53.060;18.726;2023-12-29T07:50:58;24.80;;;22.30;;
51146;SDS011;37207;53.060;18.726;2023-12-29T07:53:31;18.10;;;16.50;;
51146;SDS011;37207;53.060;18.726;2023-12-29T07:55:57;4.90;;;4.40;;
51146;SDS011;37207;53.060;18.726;2023-12-29T07:58:24;12.20;;;5.50;;
51146;SDS011;37207;53.060;18.726;2023-12-29T08:00:50;29.20;;;21.20;;
51146;SDS011;37207;53.060;18.726;2023-12-29T08:03:17;31.50;;;22.00;;
51146;SDS011;37207;53.060;18.726;2023-12-29T08:05:43;19.70;;;9.00;;
51146;SDS011;37207;53.060;18.726;2023-12-29T08:08:12;13.00;;;7.30;;
51146;SDS011;37207;53.060;18.726;2023-12-29T08:10:38;6.50;;;5.90;;
51146;SDS011;37207;53.060;18.726;2023-12-29T08:13:05;7.20;;;5.90;;
51146;SDS011;37207;53.060;18.726;2023-12-29T08:15:35;13.50;;;12.30;;
51146;SDS011;37207;53.060;18.726;2023-12-29T08:18:01;4.40;;;4.00;;
51146;SDS011;37207;53.060;18.726;2023-12-29T08:20:28;10.70;;;9.90;;
51146;SDS011;37207;53.060;18.726;2023-12-29T08:22:55;10.10;;;9.20;;
51146;SDS011;37207;53.060;18.726;2023-12-29T08:25:23;24.20;;;16.30;;
51146;SDS011;37207;53.060;18.726;2023-12-29T08:27:49;28.50;;;9.00;;
51146;SDS011;37207;53.060;18.726;2023-12-29T08:30:16;18.20;;;14.00;;
51146;SDS011;37207;53.060;18.726;2023-12-29T08:32:43;4.80;;;3.40;;
51146;SDS011;37207;53.060;18.726;2023-12-29T08:35:09;12.60;;;11.30;;
51146;SDS011;37207;53.060;18.726;2023-12-29T08:37:36;12.00;;;10.50;;
51146;SDS011;37207;53.060;18.726;2023-12-29T08:40:02;12.60;;;11.30;;
51146;SDS011;37207;53.060;18.726;2023-12-29T08:42:29;15.20;;;6.90;;
51146;SDS011;37207;53.060;18.726;2023-12-29T08:44:57;17.70;;;15.30;;
51146;SDS011;37207;53.060;18.726;2023-12-29T08:47:25;17.50;;;14.40;;
51146;SDS011;37207;53.060;18.726;2023-12-29T08:49:51;26.40;;;9.90;;
51146;SDS011;37207;53.060;18.726;2023-12-29T08:54:47;48.70;;;16.70;;
51146;SDS011;37207;53.060;18.726;2023-12-29T08:57:14;26.30;;;18.10;;
51146;SDS011;37207;53.060;18.726;2023-12-29T08:59:40;67.10;;;43.80;;
51146;SDS011;37207;53.060;18.726;2023-12-29T09:02:07;32.00;;;24.00;;
51146;SDS011;37207;53.060;18.726;2023-12-29T09:04:33;16.40;;;15.00;;
51146;SDS011;37207;53.060;18.726;2023-12-29T09:07:00;14.60;;;10.40;;
51146;SDS011;37207;53.060;18.726;2023-12-29T09:09:26;30.60;;;27.20;;
51146;SDS011;37207;53.060;18.726;2023-12-29T09:11:53;24.30;;;21.70;;
51146;SDS011;37207;53.060;18.726;2023-12-29T09:14:19;69.00;;;39.90;;
51146;SDS011;37207;53.060;18.726;2023-12-29T09:16:46;34.90;;;11.80;;
51146;SDS011;37207;53.060;18.726;2023-12-29T09:19:12;20.40;;;9.20;;
51146;SDS011;37207;53.060;18.726;2023-12-29T09:21:39;20.80;;;16.50;;
51146;SDS011;37207;53.060;18.726;2023-12-29T09:24:06;15.50;;;13.90;;
51146;SDS011;37207;53.060;18.726;2023-12-29T09:26:32;13.50;;;12.20;;
51146;SDS011;37207;53.060;18.726;2023-12-29T09:28:59;11.50;;;10.60;;
51146;SDS011;37207;53.060;18.726;2023-12-29T09:31:26;4.40;;;3.10;;
51146;SDS011;37207;53.060;18.726;2023-12-29T09:33:52;14.30;;;11.20;;
51146;SDS011;37207;53.060;18.726;2023-12-29T09:36:19;12.40;;;5.10;;
51146;SDS011;37207;53.060;18.726;2023-12-29T09:38:46;6.30;;;4.20;;
51146;SDS011;37207;53.060;18.726;2023-12-29T09:41:14;8.00;;;7.40;;
51146;SDS011;37207;53.060;18.726;2023-12-29T09:43:42;10.70;;;9.90;;
51146;SDS011;37207;53.060;18.726;2023-12-29T09:46:12;17.30;;;4.90;;
51146;SDS011;37207;53.060;18.726;2023-12-29T09:48:41;14.40;;;12.90;;
51146;SDS011;37207;53.060;18.726;2023-12-29T09:51:11;18.00;;;15.20;;
51146;SDS011;37207;53.060;18.726;2023-12-29T09:53:38;30.60;;;20.70;;
51146;SDS011;37207;53.060;18.726;2023-12-29T09:56:07;14.20;;;4.90;;
51146;SDS011;37207;53.060;18.726;2023-12-29T09:58:35;14.50;;;5.00;;
51146;SDS011;37207;53.060;18.726;2023-12-29T10:03:34;38.00;;;22.40;;
51146;SDS011;37207;53.060;18.726;2023-12-29T10:06:00;17.20;;;6.30;;
51146;SDS011;37207;53.060;18.726;2023-12-29T10:08:33;12.80;;;5.60;;
51146;SDS011;37207;53.060;18.726;2023-12-29T10:11:00;52.80;;;30.30;;
51146;SDS011;37207;53.060;18.726;2023-12-29T10:13:28;18.00;;;6.90;;
51146;SDS011;37207;53.060;18.726;2023-12-29T10:18:37;39.50;;;25.30;;
51146;SDS011;37207;53.060;18.726;2023-12-29T10:21:20;23.80;;;11.50;;
51146;SDS011;37207;53.060;18.726;2023-12-29T10:24:03;24.50;;;17.30;;
51146;SDS011;37207;53.060;18.726;2023-12-29T10:26:37;60.30;;;32.90;;
51146;SDS011;37207;53.060;18.726;2023-12-29T10:29:04;75.50;;;40.70;;
51146;SDS011;37207;53.060;18.726;2023-12-29T10:31:30;54.40;;;16.40;;
51146;SDS011;37207;53.060;18.726;2023-12-29T10:36:58;35.90;;;22.50;;
51146;SDS011;37207;53.060;18.726;2023-12-29T10:39:25;18.60;;;7.20;;
51146;SDS011;37207;53.060;18.726;2023-12-29T10:42:02;24.20;;;17.40;;
51146;SDS011;37207;53.060;18.726;2023-12-29T10:44:31;19.60;;;15.20;;
51146;SDS011;37207;53.060;18.726;2023-12-29T10:46:57;6.20;;;4.00;;
51146;SDS011;37207;53.060;18.726;2023-12-29T10:49:24;41.90;;;23.10;;
51146;SDS011;37207;53.060;18.726;2023-12-29T10:51:50;30.80;;;18.80;;
51146;SDS011;37207;53.060;18.726;2023-12-29T10:54:20;16.40;;;12.80;;
51146;SDS011;37207;53.060;18.726;2023-12-29T10:57:00;14.70;;;12.50;;
51146;SDS011;37207;53.060;18.726;2023-12-29T10:59:28;9.40;;;5.20;;
51146;SDS011;37207;53.060;18.726;2023-12-29T11:01:55;17.60;;;13.80;;
51146;SDS011;37207;53.060;18.726;2023-12-29T11:04:22;59.10;;;34.50;;
51146;SDS011;37207;53.060;18.726;2023-12-29T11:06:49;31.00;;;10.80;;
51146;SDS011;37207;53.060;18.726;2023-12-29T11:09:39;35.40;;;23.70;;
51146;SDS011;37207;53.060;18.726;2023-12-29T11:12:04;78.60;;;47.50;;
51146;SDS011;37207;53.060;18.726;2023-12-29T11:14:32;41.10;;;26.80;;
51146;SDS011;37207;53.060;18.726;2023-12-29T11:16:59;66.90;;;40.40;;
51146;SDS011;37207;53.060;18.726;2023-12-29T11:19:27;36.20;;;24.80;;
51146;SDS011;37207;53.060;18.726;2023-12-29T11:21:57;18.90;;;14.60;;
51146;SDS011;37207;53.060;18.726;2023-12-29T11:24:24;23.10;;;20.40;;
51146;SDS011;37207;53.060;18.726;2023-12-29T11:26:51;20.60;;;18.80;;
51146;SDS011;37207;53.060;18.726;2023-12-29T11:29:19;11.80;;;10.70;;
51146;SDS011;37207;53.060;18.726;2023-12-29T11:31:46;25.00;;;17.70;;
51146;SDS011;37207;53.060;18.726;2023-12-29T11:34:25;83.20;;;41.10;;
51146;SDS011;37207;53.060;18.726;2023-12-29T11:37:11;160.30;;;89.80;;
51146;SDS011;37207;53.060;18.726;2023-12-29T11:40:10;107.10;;;59.50;;
51146;SDS011;37207;53.060;18.726;2023-12-29T11:42:44;92.50;;;47.70;;
51146;SDS011;37207;53.060;18.726;2023-12-29T11:45:25;175.40;;;88.50;;
51146;SDS011;37207;53.060;18.726;2023-12-29T11:47:52;119.20;;;61.40;;
51146;SDS011;37207;53.060;18.726;2023-12-29T11:53:03;31.30;;;18.70;;
51146;SDS011;37207;53.060;18.726;2023-12-29T11:55:30;18.60;;;7.30;;
51146;SDS011;37207;53.060;18.726;2023-12-29T11:58:01;38.30;;;20.20;;
51146;SDS011;37207;53.060;18.726;2023-12-29T12:00:44;18.30;;;13.50;;
51146;SDS011;37207;53.060;18.726;2023-12-29T12:03:13;82.20;;;42.70;;
51146;SDS011;37207;53.060;18.726;2023-12-29T12:05:58;57.30;;;32.00;;
51146;SDS011;37207;53.060;18.726;2023-12-29T12:08:35;33.30;;;23.40;;
51146;SDS011;37207;53.060;18.726;2023-12-29T12:14:07;14.00;;;10.40;;
51146;SDS011;37207;53.060;18.726;2023-12-29T12:16:46;10.70;;;8.70;;
51146;SDS011;37207;53.060;18.726;2023-12-29T12:21:41;12.30;;;10.90;;
51146;SDS011;37207;53.060;18.726;2023-12-29T12:24:19;67.80;;;35.20;;
51146;SDS011;37207;53.060;18.726;2023-12-29T12:26:46;68.40;;;38.80;;
51146;SDS011;37207;53.060;18.726;2023-12-29T12:29:13;82.40;;;48.20;;
51146;SDS011;37207;53.060;18.726;2023-12-29T12:31:56;31.50;;;23.90;;
51146;SDS011;37207;53.060;18.726;2023-12-29T12:34:23;61.40;;;32.80;;
51146;SDS011;37207;53.060;18.726;2023-12-29T12:36:50;37.10;;;12.40;;
51146;SDS011;37207;53.060;18.726;2023-12-29T12:39:17;46.60;;;28.10;;
51146;SDS011;37207;53.060;18.726;2023-12-29T12:41:45;90.40;;;46.40;;
51146;SDS011;37207;53.060;18.726;2023-12-29T12:44:12;41.00;;;11.80;;
51146;SDS011;37207;53.060;18.726;2023-12-29T12:46:41;143.50;;;56.90;;
51146;SDS011;37207;53.060;18.726;2023-12-29T12:49:11;105.10;;;46.90;;
51146;SDS011;37207;53.060;18.726;2023-12-29T12:51:37;60.20;;;31.70;;
51146;SDS011;37207;53.060;18.726;2023-12-29T12:54:04;112.30;;;27.50;;
51146;SDS011;37207;53.060;18.726;2023-12-29T12:56:32;36.50;;;21.60;;
51146;SDS011;37207;53.060;18.726;2023-12-29T12:59:00;11.40;;;9.50;;
51146;SDS011;37207;53.060;18.726;2023-12-29T13:01:28;13.20;;;7.10;;
51146;SDS011;37207;53.060;18.726;2023-12-29T13:04:00;6.50;;;5.90;;
51146;SDS011;37207;53.060;18.726;2023-12-29T13:06:29;8.30;;;7.60;;
51146;SDS011;37207;53.060;18.726;2023-12-29T13:08:56;11.70;;;10.00;;
51146;SDS011;37207;53.060;18.726;2023-12-29T13:11:23;23.80;;;16.80;;
51146;SDS011;37207;53.060;18.726;2023-12-29T13:13:51;40.00;;;25.60;;
51146;SDS011;37207;53.060;18.726;2023-12-29T13:16:34;24.80;;;14.90;;
51146;SDS011;37207;53.060;18.726;2023-12-29T13:19:15;49.40;;;31.10;;
51146;SDS011;37207;53.060;18.726;2023-12-29T13:21:55;7.80;;;5.00;;
51146;SDS011;37207;53.060;18.726;2023-12-29T13:24:22;15.00;;;7.90;;
51146;SDS011;37207;53.060;18.726;2023-12-29T13:26:52;9.00;;;7.90;;
51146;SDS011;37207;53.060;18.726;2023-12-29T13:29:23;2.40;;;2.20;;
51146;SDS011;37207;53.060;18.726;2023-12-29T13:31:55;5.10;;;2.40;;
51146;SDS011;37207;53.060;18.726;2023-12-29T13:34:34;10.20;;;8.90;;
51146;SDS011;37207;53.060;18.726;2023-12-29T13:37:13;5.80;;;5.30;;
51146;SDS011;37207;53.060;18.726;2023-12-29T13:40:00;30.70;;;19.60;;
51146;SDS011;37207;53.060;18.726;2023-12-29T13:42:41;9.70;;;4.80;;
51146;SDS011;37207;53.060;18.726;2023-12-29T13:45:11;8.50;;;6.40;;
51146;SDS011;37207;53.060;18.726;2023-12-29T13:47:41;19.10;;;13.60;;
51146;SDS011;37207;53.060;18.726;2023-12-29T13:50:10;42.50;;;27.30;;
51146;SDS011;37207;53.060;18.726;2023-12-29T13:52:38;44.70;;;26.90;;
51146;SDS011;37207;53.060;18.726;2023-12-29T13:55:05;35.00;;;12.20;;
51146;SDS011;37207;53.060;18.726;2023-12-29T13:57:33;44.70;;;29.10;;
51146;SDS011;37207;53.060;18.726;2023-12-29T14:00:17;20.10;;;8.30;;
51146;SDS011;37207;53.060;18.726;2023-12-29T14:10:34;9.20;;;8.30;;
51146;SDS011;37207;53.060;18.726;2023-12-29T14:13:09;6.60;;;3.50;;
51146;SDS011;37207;53.060;18.726;2023-12-29T14:15:38;15.70;;;12.70;;
51146;SDS011;37207;53.060;18.726;2023-12-29T14:20:35;27.30;;;20.10;;
51146;SDS011;37207;53.060;18.726;2023-12-29T14:23:02;62.90;;;35.90;;
51146;SDS011;37207;53.060;18.726;2023-12-29T14:25:34;68.90;;;37.20;;
51146;SDS011;37207;53.060;18.726;2023-12-29T14:28:21;61.10;;;33.90;;
51146;SDS011;37207;53.060;18.726;2023-12-29T14:30:48;28.20;;;17.00;;
51146;SDS011;37207;53.060;18.726;2023-12-29T14:33:16;18.80;;;12.40;;
51146;SDS011;37207;53.060;18.726;2023-12-29T14:35:43;15.00;;;4.50;;
51146;SDS011;37207;53.060;18.726;2023-12-29T14:38:09;17.80;;;10.10;;
51146;SDS011;37207;53.060;18.726;2023-12-29T14:40:44;13.90;;;9.20;;
51146;SDS011;37207;53.060;18.726;2023-12-29T14:43:11;8.00;;;6.50;;
51146;SDS011;37207;53.060;18.726;2023-12-29T14:45:38;11.40;;;9.40;;
51146;SDS011;37207;53.060;18.726;2023-12-29T14:48:06;90.00;;;39.50;;
51146;SDS011;37207;53.060;18.726;2023-12-29T14:50:33;134.10;;;53.40;;
51146;SDS011;37207;53.060;18.726;2023-12-29T14:53:00;37.50;;;11.60;;
51146;SDS011;37207;53.060;18.726;2023-12-29T14:55:27;35.90;;;9.60;;
51146;SDS011;37207;53.060;18.726;2023-12-29T14:57:53;134.30;;;52.30;;
51146;SDS011;37207;53.060;18.726;2023-12-29T15:00:20;133.90;;;26.70;;
51146;SDS011;37207;53.060;18.726;2023-12-29T15:02:46;134.30;;;54.40;;
51146;SDS011;37207;53.060;18.726;2023-12-29T15:05:13;91.20;;;39.00;;